sensor_id;sensor_type;location;lat;lon;timestamp;temperature;humidity
53286;DHT22;39171;45.550;12.074;2023-03-08T00:03:53;17.30;61.40
53286;DHT22;39171;45.550;12.074;2023-03-08T00:09:54;17.20;61.60
53286;DHT22;39171;45.550;12.074;2023-03-08T00:15:58;17.20;61.60
53286;DHT22;39171;45.550;12.074;2023-03-08T00:21:59;17.20;61.80
53286;DHT22;39171;45.550;12.074;2023-03-08T00:28:00;17.10;61.60
53286;DHT22;39171;45.550;12.074;2023-03-08T00:34:04;17.10;61.80
53286;DHT22;39171;45.550;12.074;2023-03-08T00:40:05;17.00;61.90
53286;DHT22;39171;45.550;12.074;2023-03-08T00:46:09;17.00;62.00
53286;DHT22;39171;45.550;12.074;2023-03-08T00:52:11;17.00;61.80
53286;DHT22;39171;45.550;12.074;2023-03-08T00:58:12;16.90;62.00
53286;DHT22;39171;45.550;12.074;2023-03-08T01:04:13;16.90;62.20
53286;DHT22;39171;45.550;12.074;2023-03-08T01:10:15;16.80;62.30
53286;DHT22;39171;45.550;12.074;2023-03-08T01:16:17;16.80;62.30
53286;DHT22;39171;45.550;12.074;2023-03-08T01:22:19;16.80;62.30
53286;DHT22;39171;45.550;12.074;2023-03-08T01:28:20;16.70;62.50
53286;DHT22;39171;45.550;12.074;2023-03-08T01:34:21;16.70;62.50
53286;DHT22;39171;45.550;12.074;2023-03-08T01:40:22;16.70;62.60
53286;DHT22;39171;45.550;12.074;2023-03-08T01:52:33;16.70;62.80
53286;DHT22;39171;45.550;12.074;2023-03-08T01:58:36;16.60;62.80
53286;DHT22;39171;45.550;12.074;2023-03-08T02:04:38;16.60;62.80
53286;DHT22;39171;45.550;12.074;2023-03-08T02:10:44;16.60;62.90
53286;DHT22;39171;45.550;12.074;2023-03-08T02:16:45;16.60;62.90
53286;DHT22;39171;45.550;12.074;2023-03-08T02:22:47;16.50;62.90
53286;DHT22;39171;45.550;12.074;2023-03-08T02:28:51;16.50;63.00
53286;DHT22;39171;45.550;12.074;2023-03-08T02:34:55;16.50;63.10
53286;DHT22;39171;45.550;12.074;2023-03-08T02:40:56;16.40;63.20
53286;DHT22;39171;45.550;12.074;2023-03-08T02:46:57;16.40;63.20
53286;DHT22;39171;45.550;12.074;2023-03-08T02:52:59;16.40;63.30
53286;DHT22;39171;45.550;12.074;2023-03-08T02:59:00;16.40;63.20
53286;DHT22;39171;45.550;12.074;2023-03-08T03:05:02;16.40;63.40
53286;DHT22;39171;45.550;12.074;2023-03-08T03:11:11;16.30;63.30
53286;DHT22;39171;45.550;12.074;2023-03-08T03:17:12;16.30;63.40
53286;DHT22;39171;45.550;12.074;2023-03-08T03:23:14;16.20;63.60
53286;DHT22;39171;45.550;12.074;2023-03-08T03:29:22;16.20;63.70
53286;DHT22;39171;45.550;12.074;2023-03-08T03:35:29;16.20;63.50
53286;DHT22;39171;45.550;12.074;2023-03-08T03:41:31;16.10;63.80
53286;DHT22;39171;45.550;12.074;2023-03-08T03:47:38;16.10;63.80
53286;DHT22;39171;45.550;12.074;2023-03-08T03:53:42;16.10;64.00
53286;DHT22;39171;45.550;12.074;2023-03-08T03:59:43;16.00;63.90
53286;DHT22;39171;45.550;12.074;2023-03-08T04:05:45;16.00;63.90
53286;DHT22;39171;45.550;12.074;2023-03-08T04:11:47;16.00;63.90
53286;DHT22;39171;45.550;12.074;2023-03-08T04:17:53;15.90;64.20
53286;DHT22;39171;45.550;12.074;2023-03-08T04:23:57;15.90;64.40
53286;DHT22;39171;45.550;12.074;2023-03-08T04:29:58;15.80;64.20
53286;DHT22;39171;45.550;12.074;2023-03-08T04:36:00;15.80;64.20
53286;DHT22;39171;45.550;12.074;2023-03-08T04:42:02;15.80;64.20
53286;DHT22;39171;45.550;12.074;2023-03-08T04:48:05;15.80;64.20
53286;DHT22;39171;45.550;12.074;2023-03-08T04:54:07;15.70;64.20
53286;DHT22;39171;45.550;12.074;2023-03-08T05:00:13;15.70;64.60
53286;DHT22;39171;45.550;12.074;2023-03-08T05:06:17;15.70;64.90
53286;DHT22;39171;45.550;12.074;2023-03-08T05:12:20;15.70;64.50
53286;DHT22;39171;45.550;12.074;2023-03-08T05:18:31;15.70;64.50
53286;DHT22;39171;45.550;12.074;2023-03-08T05:24:37;15.70;64.70
53286;DHT22;39171;45.550;12.074;2023-03-08T05:30:41;15.60;64.70
53286;DHT22;39171;45.550;12.074;2023-03-08T05:36:43;15.60;64.60
53286;DHT22;39171;45.550;12.074;2023-03-08T05:42:45;15.60;64.70
53286;DHT22;39171;45.550;12.074;2023-03-08T05:48:48;15.50;64.70
53286;DHT22;39171;45.550;12.074;2023-03-08T05:54:54;15.50;64.70
53286;DHT22;39171;45.550;12.074;2023-03-08T06:00:55;15.50;64.80
53286;DHT22;39171;45.550;12.074;2023-03-08T06:06:57;15.50;64.70
53286;DHT22;39171;45.550;12.074;2023-03-08T06:13:03;15.40;64.80
53286;DHT22;39171;45.550;12.074;2023-03-08T06:19:04;15.40;64.90
53286;DHT22;39171;45.550;12.074;2023-03-08T06:25:07;15.40;64.90
53286;DHT22;39171;45.550;12.074;2023-03-08T06:31:11;15.30;65.20
53286;DHT22;39171;45.550;12.074;2023-03-08T06:37:13;15.40;65.40
53286;DHT22;39171;45.550;12.074;2023-03-08T06:43:14;15.40;65.20
53286;DHT22;39171;45.550;12.074;2023-03-08T06:49:15;15.30;65.60
53286;DHT22;39171;45.550;12.074;2023-03-08T06:55:17;15.30;66.00
53286;DHT22;39171;45.550;12.074;2023-03-08T07:01:19;15.50;65.90
53286;DHT22;39171;45.550;12.074;2023-03-08T07:07:20;15.70;65.60
53286;DHT22;39171;45.550;12.074;2023-03-08T07:13:21;16.00;64.90
53286;DHT22;39171;45.550;12.074;2023-03-08T07:19:23;16.20;64.30
53286;DHT22;39171;45.550;12.074;2023-03-08T07:25:24;16.40;63.80
53286;DHT22;39171;45.550;12.074;2023-03-08T07:31:26;16.70;63.40
53286;DHT22;39171;45.550;12.074;2023-03-08T07:37:28;16.90;62.80
53286;DHT22;39171;45.550;12.074;2023-03-08T07:43:30;17.00;62.40
53286;DHT22;39171;45.550;12.074;2023-03-08T07:49:39;17.20;62.00
53286;DHT22;39171;45.550;12.074;2023-03-08T07:55:40;17.30;61.70
53286;DHT22;39171;45.550;12.074;2023-03-08T08:01:41;17.50;61.30
53286;DHT22;39171;45.550;12.074;2023-03-08T08:07:45;17.60;60.90
53286;DHT22;39171;45.550;12.074;2023-03-08T08:13:47;17.70;60.60
53286;DHT22;39171;45.550;12.074;2023-03-08T08:19:48;17.80;60.40
53286;DHT22;39171;45.550;12.074;2023-03-08T08:25:49;17.80;60.20
53286;DHT22;39171;45.550;12.074;2023-03-08T08:31:51;18.00;60.10
53286;DHT22;39171;45.550;12.074;2023-03-08T08:37:52;18.00;60.10
53286;DHT22;39171;45.550;12.074;2023-03-08T08:43:54;18.20;59.70
53286;DHT22;39171;45.550;12.074;2023-03-08T08:49:58;18.20;59.30
53286;DHT22;39171;45.550;12.074;2023-03-08T08:56:13;18.20;59.20
53286;DHT22;39171;45.550;12.074;2023-03-08T09:02:14;18.30;59.10
53286;DHT22;39171;45.550;12.074;2023-03-08T09:08:15;18.40;58.90
53286;DHT22;39171;45.550;12.074;2023-03-08T09:14:16;18.40;58.60
53286;DHT22;39171;45.550;12.074;2023-03-08T09:20:18;18.50;58.40
53286;DHT22;39171;45.550;12.074;2023-03-08T09:26:19;18.60;58.30
53286;DHT22;39171;45.550;12.074;2023-03-08T09:32:20;18.70;58.00
53286;DHT22;39171;45.550;12.074;2023-03-08T09:38:22;18.70;58.00
53286;DHT22;39171;45.550;12.074;2023-03-08T09:50:50;18.80;57.50
53286;DHT22;39171;45.550;12.074;2023-03-08T09:56:52;18.90;57.50
53286;DHT22;39171;45.550;12.074;2023-03-08T10:02:58;18.90;57.20
53286;DHT22;39171;45.550;12.074;2023-03-08T10:09:06;18.90;57.00
53286;DHT22;39171;45.550;12.074;2023-03-08T10:15:14;18.90;57.10
53286;DHT22;39171;45.550;12.074;2023-03-08T10:21:17;18.80;57.10
53286;DHT22;39171;45.550;12.074;2023-03-08T10:27:26;18.80;57.10
53286;DHT22;39171;45.550;12.074;2023-03-08T10:33:32;18.80;57.00
53286;DHT22;39171;45.550;12.074;2023-03-08T10:39:35;18.70;57.20
53286;DHT22;39171;45.550;12.074;2023-03-08T10:45:36;18.70;57.00
53286;DHT22;39171;45.550;12.074;2023-03-08T10:51:37;18.70;56.90
53286;DHT22;39171;45.550;12.074;2023-03-08T10:57:39;18.60;57.00
53286;DHT22;39171;45.550;12.074;2023-03-08T11:03:40;18.60;56.90
53286;DHT22;39171;45.550;12.074;2023-03-08T11:09:42;18.60;56.90
53286;DHT22;39171;45.550;12.074;2023-03-08T11:15:49;18.50;57.00
53286;DHT22;39171;45.550;12.074;2023-03-08T11:22:09;18.50;56.80
53286;DHT22;39171;45.550;12.074;2023-03-08T11:28:31;18.40;57.00
53286;DHT22;39171;45.550;12.074;2023-03-08T11:34:44;18.40;57.20
53286;DHT22;39171;45.550;12.074;2023-03-08T11:40:49;18.40;57.30
53286;DHT22;39171;45.550;12.074;2023-03-08T11:53:02;18.40;57.40
53286;DHT22;39171;45.550;12.074;2023-03-08T11:59:15;18.40;57.30
53286;DHT22;39171;45.550;12.074;2023-03-08T12:11:28;18.30;57.30
53286;DHT22;39171;45.550;12.074;2023-03-08T12:17:35;18.30;57.20
53286;DHT22;39171;45.550;12.074;2023-03-08T12:36:19;18.30;56.60
53286;DHT22;39171;45.550;12.074;2023-03-08T12:42:28;18.30;56.70
53286;DHT22;39171;45.550;12.074;2023-03-08T13:01:02;18.30;56.40
53286;DHT22;39171;45.550;12.074;2023-03-08T13:19:29;18.80;55.20
53286;DHT22;39171;45.550;12.074;2023-03-08T13:31:34;19.20;54.20
53286;DHT22;39171;45.550;12.074;2023-03-08T13:37:37;19.40;54.50
53286;DHT22;39171;45.550;12.074;2023-03-08T13:43:39;19.60;54.30
53286;DHT22;39171;45.550;12.074;2023-03-08T13:49:41;19.70;54.20
53286;DHT22;39171;45.550;12.074;2023-03-08T13:55:49;19.80;54.00
53286;DHT22;39171;45.550;12.074;2023-03-08T14:01:51;19.80;53.60
53286;DHT22;39171;45.550;12.074;2023-03-08T14:13:57;19.90;53.70
53286;DHT22;39171;45.550;12.074;2023-03-08T14:19:59;20.00;53.20
53286;DHT22;39171;45.550;12.074;2023-03-08T14:26:01;20.00;53.30
53286;DHT22;39171;45.550;12.074;2023-03-08T14:38:26;20.20;52.70
53286;DHT22;39171;45.550;12.074;2023-03-08T14:44:28;20.20;52.20
53286;DHT22;39171;45.550;12.074;2023-03-08T14:50:30;20.20;52.00
53286;DHT22;39171;45.550;12.074;2023-03-08T14:56:32;20.10;52.30
53286;DHT22;39171;45.550;12.074;2023-03-08T15:02:34;20.00;52.00
53286;DHT22;39171;45.550;12.074;2023-03-08T15:08:35;20.00;52.30
53286;DHT22;39171;45.550;12.074;2023-03-08T15:14:37;19.90;52.30
53286;DHT22;39171;45.550;12.074;2023-03-08T15:20:39;19.80;52.40
53286;DHT22;39171;45.550;12.074;2023-03-08T15:26:44;19.80;52.70
53286;DHT22;39171;45.550;12.074;2023-03-08T15:32:48;19.70;53.10
53286;DHT22;39171;45.550;12.074;2023-03-08T15:38:50;19.70;53.30
53286;DHT22;39171;45.550;12.074;2023-03-08T15:44:51;19.70;53.50
53286;DHT22;39171;45.550;12.074;2023-03-08T15:50:52;19.70;53.60
53286;DHT22;39171;45.550;12.074;2023-03-08T15:57:03;19.60;53.70
53286;DHT22;39171;45.550;12.074;2023-03-08T16:03:10;19.50;53.40
53286;DHT22;39171;45.550;12.074;2023-03-08T16:09:12;19.50;53.70
53286;DHT22;39171;45.550;12.074;2023-03-08T16:15:14;19.50;53.90
53286;DHT22;39171;45.550;12.074;2023-03-08T16:21:15;19.50;54.10
53286;DHT22;39171;45.550;12.074;2023-03-08T16:27:16;19.40;54.10
53286;DHT22;39171;45.550;12.074;2023-03-08T16:33:18;19.40;54.10
53286;DHT22;39171;45.550;12.074;2023-03-08T16:39:19;19.30;54.50
53286;DHT22;39171;45.550;12.074;2023-03-08T16:45:20;19.30;54.80
53286;DHT22;39171;45.550;12.074;2023-03-08T16:51:23;19.30;54.80
53286;DHT22;39171;45.550;12.074;2023-03-08T16:57:24;19.20;55.00
53286;DHT22;39171;45.550;12.074;2023-03-08T17:03:27;19.20;55.10
53286;DHT22;39171;45.550;12.074;2023-03-08T17:09:28;19.10;55.60
53286;DHT22;39171;45.550;12.074;2023-03-08T17:15:42;19.10;55.90
53286;DHT22;39171;45.550;12.074;2023-03-08T17:21:44;19.10;56.10
53286;DHT22;39171;45.550;12.074;2023-03-08T17:27:45;19.00;56.20
53286;DHT22;39171;45.550;12.074;2023-03-08T17:33:47;19.00;56.40
53286;DHT22;39171;45.550;12.074;2023-03-08T17:39:48;18.90;56.60
53286;DHT22;39171;45.550;12.074;2023-03-08T17:45:59;18.80;56.20
53286;DHT22;39171;45.550;12.074;2023-03-08T17:52:00;18.80;56.30
53286;DHT22;39171;45.550;12.074;2023-03-08T17:58:01;18.80;56.30
53286;DHT22;39171;45.550;12.074;2023-03-08T18:04:03;18.70;56.90
53286;DHT22;39171;45.550;12.074;2023-03-08T18:10:05;18.70;56.90
53286;DHT22;39171;45.550;12.074;2023-03-08T18:16:06;18.70;57.20
53286;DHT22;39171;45.550;12.074;2023-03-08T18:22:08;18.60;57.20
53286;DHT22;39171;45.550;12.074;2023-03-08T18:28:12;18.60;57.40
53286;DHT22;39171;45.550;12.074;2023-03-08T18:34:13;18.50;57.40
53286;DHT22;39171;45.550;12.074;2023-03-08T18:40:14;18.50;57.60
53286;DHT22;39171;45.550;12.074;2023-03-08T18:46:16;18.40;57.90
53286;DHT22;39171;45.550;12.074;2023-03-08T18:52:17;18.40;58.00
53286;DHT22;39171;45.550;12.074;2023-03-08T18:58:18;18.40;58.00
53286;DHT22;39171;45.550;12.074;2023-03-08T19:04:19;18.30;58.20
53286;DHT22;39171;45.550;12.074;2023-03-08T19:10:20;18.30;58.10
53286;DHT22;39171;45.550;12.074;2023-03-08T19:16:26;18.30;58.40
53286;DHT22;39171;45.550;12.074;2023-03-08T19:22:27;18.30;58.40
53286;DHT22;39171;45.550;12.074;2023-03-08T19:28:29;18.30;58.60
53286;DHT22;39171;45.550;12.074;2023-03-08T19:34:31;18.30;58.60
53286;DHT22;39171;45.550;12.074;2023-03-08T19:40:32;18.20;58.80
53286;DHT22;39171;45.550;12.074;2023-03-08T19:46:37;18.20;58.80
53286;DHT22;39171;45.550;12.074;2023-03-08T19:52:38;18.20;58.90
53286;DHT22;39171;45.550;12.074;2023-03-08T19:58:40;18.20;59.00
53286;DHT22;39171;45.550;12.074;2023-03-08T20:04:41;18.10;59.00
53286;DHT22;39171;45.550;12.074;2023-03-08T20:10:42;18.10;59.20
53286;DHT22;39171;45.550;12.074;2023-03-08T20:16:43;18.10;59.30
53286;DHT22;39171;45.550;12.074;2023-03-08T20:22:45;18.00;59.40
53286;DHT22;39171;45.550;12.074;2023-03-08T20:28:47;18.00;59.50
53286;DHT22;39171;45.550;12.074;2023-03-08T20:34:48;18.00;59.70
53286;DHT22;39171;45.550;12.074;2023-03-08T20:40:57;18.00;59.80
53286;DHT22;39171;45.550;12.074;2023-03-08T20:46:58;18.00;59.90
53286;DHT22;39171;45.550;12.074;2023-03-08T20:52:59;17.90;60.00
53286;DHT22;39171;45.550;12.074;2023-03-08T20:59:01;17.90;60.00
53286;DHT22;39171;45.550;12.074;2023-03-08T21:05:02;17.90;60.20
53286;DHT22;39171;45.550;12.074;2023-03-08T21:11:05;17.80;60.30
53286;DHT22;39171;45.550;12.074;2023-03-08T21:17:06;17.80;60.30
53286;DHT22;39171;45.550;12.074;2023-03-08T21:23:08;17.80;60.40
53286;DHT22;39171;45.550;12.074;2023-03-08T21:29:16;17.80;60.40
53286;DHT22;39171;45.550;12.074;2023-03-08T21:35:19;17.80;60.60
53286;DHT22;39171;45.550;12.074;2023-03-08T21:41:26;17.70;60.60
53286;DHT22;39171;45.550;12.074;2023-03-08T21:47:28;17.70;60.70
53286;DHT22;39171;45.550;12.074;2023-03-08T21:53:29;17.70;60.80
53286;DHT22;39171;45.550;12.074;2023-03-08T21:59:30;17.70;60.80
53286;DHT22;39171;45.550;12.074;2023-03-08T22:05:31;17.70;60.90
53286;DHT22;39171;45.550;12.074;2023-03-08T22:11:33;17.70;61.00
53286;DHT22;39171;45.550;12.074;2023-03-08T22:17:34;17.60;61.00
53286;DHT22;39171;45.550;12.074;2023-03-08T22:23:35;17.60;61.10
53286;DHT22;39171;45.550;12.074;2023-03-08T22:29:36;17.50;61.10
53286;DHT22;39171;45.550;12.074;2023-03-08T22:35:38;17.60;61.20
53286;DHT22;39171;45.550;12.074;2023-03-08T22:41:39;17.50;61.30
53286;DHT22;39171;45.550;12.074;2023-03-08T22:47:40;17.50;61.30
53286;DHT22;39171;45.550;12.074;2023-03-08T22:53:41;17.50;61.30
53286;DHT22;39171;45.550;12.074;2023-03-08T22:59:43;17.50;61.50
53286;DHT22;39171;45.550;12.074;2023-03-08T23:05:47;17.50;61.50
53286;DHT22;39171;45.550;12.074;2023-03-08T23:11:48;17.50;61.60
53286;DHT22;39171;45.550;12.074;2023-03-08T23:17:49;17.40;61.60
53286;DHT22;39171;45.550;12.074;2023-03-08T23:23:51;17.40;61.70
53286;DHT22;39171;45.550;12.074;2023-03-08T23:29:52;17.40;61.70
53286;DHT22;39171;45.550;12.074;2023-03-08T23:35:56;17.40;61.80
53286;DHT22;39171;45.550;12.074;2023-03-08T23:41:57;17.40;61.90
53286;DHT22;39171;45.550;12.074;2023-03-08T23:47:58;17.30;61.90
53286;DHT22;39171;45.550;12.074;2023-03-08T23:54:00;17.30;62.00
